createdAt,value
2022-08-17T00:01:02.922Z,88
2022-08-17T00:02:28.378Z,88
2022-08-17T00:03:46.200Z,88
2022-08-17T00:04:51.909Z,88
2022-08-17T00:05:54.480Z,88
2022-08-17T00:06:57.057Z,88
2022-08-17T00:07:59.999Z,88
2022-08-17T00:09:02.012Z,88
2022-08-17T00:10:04.710Z,89
2022-08-17T00:11:07.897Z,88
2022-08-17T00:12:45.977Z,89
2022-08-17T00:13:49.483Z,89
2022-08-17T00:14:52.506Z,89
2022-08-17T00:15:55.511Z,89
2022-08-17T00:16:59.241Z,89
2022-08-17T00:18:01.870Z,89
2022-08-17T00:19:09.649Z,89
2022-08-17T00:20:12.831Z,89
2022-08-17T00:22:30.003Z,89
2022-08-17T00:23:50.938Z,89
2022-08-17T00:24:53.510Z,89
2022-08-17T00:25:55.858Z,89
2022-08-17T00:26:58.971Z,89
2022-08-17T00:28:01.874Z,89
2022-08-17T00:29:04.281Z,89
2022-08-17T00:30:06.861Z,89
2022-08-17T00:31:09.278Z,89
2022-08-17T00:33:18.142Z,89
2022-08-17T00:34:21.259Z,89
2022-08-17T00:35:23.616Z,88
2022-08-17T00:36:26.036Z,88
2022-08-17T00:37:28.943Z,88
2022-08-17T00:38:31.502Z,88
2022-08-17T00:39:35.195Z,89
2022-08-17T00:40:46.226Z,89
2022-08-17T00:41:50.861Z,89
2022-08-17T00:42:53.493Z,89
2022-08-17T00:43:56.722Z,89
2022-08-17T00:44:59.024Z,89
2022-08-17T00:46:02.219Z,89
2022-08-17T00:47:04.843Z,89
2022-08-17T00:48:31.237Z,89
2022-08-17T00:49:34.367Z,89
2022-08-17T00:50:37.285Z,89
2022-08-17T00:51:40.143Z,90
2022-08-17T00:52:43.508Z,90
2022-08-17T00:53:46.203Z,90
2022-08-17T00:54:49.324Z,90
2022-08-17T00:55:52.007Z,90
2022-08-17T00:56:57.515Z,90
2022-08-17T00:58:00.994Z,90
2022-08-17T00:59:03.124Z,90
2022-08-17T01:00:06.311Z,90
2022-08-17T01:01:09.846Z,90
2022-08-17T01:02:12.724Z,90
2022-08-17T01:03:15.332Z,90
2022-08-17T01:04:17.942Z,90
2022-08-17T01:05:21.819Z,90
2022-08-17T01:06:25.218Z,90
2022-08-17T01:07:28.254Z,90
2022-08-17T01:08:30.865Z,90
2022-08-17T01:09:32.989Z,90
2022-08-17T01:11:03.071Z,90
2022-08-17T01:12:05.016Z,90
2022-08-17T01:13:07.925Z,90
2022-08-17T01:14:10.826Z,90
2022-08-17T01:15:13.399Z,90
2022-08-17T01:16:16.703Z,90
2022-08-17T01:17:19.583Z,90
2022-08-17T01:18:22.247Z,90
2022-08-17T01:19:24.881Z,90
2022-08-17T01:20:27.593Z,91
2022-08-17T01:21:31.067Z,91
2022-08-17T01:22:33.711Z,91
2022-08-17T01:23:36.899Z,91
2022-08-17T01:24:38.980Z,91
2022-08-17T01:25:41.331Z,90
2022-08-17T01:26:44.174Z,90
2022-08-17T01:27:47.114Z,90
2022-08-17T01:28:56.429Z,90
2022-08-17T01:29:59.879Z,90
2022-08-17T01:31:02.782Z,90
2022-08-17T01:32:05.679Z,90
2022-08-17T01:33:08.315Z,90
2022-08-17T01:34:10.955Z,90
2022-08-17T01:35:14.366Z,90
2022-08-17T01:36:17.106Z,90
2022-08-17T01:37:19.729Z,89
2022-08-17T01:38:28.434Z,89
2022-08-17T01:39:31.353Z,89
2022-08-17T01:40:34.360Z,89
2022-08-17T01:41:36.770Z,89
2022-08-17T01:42:39.400Z,89
2022-08-17T01:43:42.308Z,90
2022-08-17T01:44:45.207Z,90
2022-08-17T01:46:03.930Z,90
2022-08-17T01:47:07.228Z,90
2022-08-17T01:48:09.856Z,90
2022-08-17T01:49:13.041Z,90
2022-08-17T01:50:15.121Z,90
2022-08-17T01:51:17.976Z,90
2022-08-17T01:52:20.331Z,90
2022-08-17T01:53:22.911Z,90
2022-08-17T01:54:25.806Z,90
2022-08-17T01:55:28.719Z,90
2022-08-17T01:56:31.727Z,90
2022-08-17T01:57:34.082Z,90
2022-08-17T01:58:37.057Z,90
2022-08-17T01:59:39.900Z,90
2022-08-17T02:01:02.509Z,90
2022-08-17T02:02:05.702Z,90
2022-08-17T02:03:08.847Z,90
2022-08-17T02:04:11.693Z,90
2022-08-17T02:05:14.645Z,90
2022-08-17T02:06:29.475Z,90
2022-08-17T02:08:02.768Z,90
2022-08-17T02:09:30.166Z,90
2022-08-17T02:10:35.237Z,90
2022-08-17T02:11:51.415Z,90
2022-08-17T02:12:56.337Z,90
2022-08-17T02:14:05.284Z,90
2022-08-17T02:15:07.564Z,90
2022-08-17T02:16:10.491Z,90
2022-08-17T02:17:13.668Z,90
2022-08-17T02:18:16.312Z,90
2022-08-17T02:19:18.996Z,90
2022-08-17T02:20:43.687Z,91
2022-08-17T02:21:46.783Z,91
2022-08-17T02:22:50.865Z,91
2022-08-17T02:23:53.667Z,91
2022-08-17T02:25:03.407Z,91
2022-08-17T02:26:06.105Z,91
2022-08-17T02:27:08.967Z,91
2022-08-17T02:28:11.886Z,91
2022-08-17T02:29:14.321Z,91
2022-08-17T02:31:04.074Z,91
2022-08-17T02:32:06.638Z,91
2022-08-17T02:33:10.229Z,91
2022-08-17T02:34:12.395Z,91
2022-08-17T02:35:23.165Z,91
2022-08-17T02:36:28.963Z,90
2022-08-17T02:37:31.873Z,91
2022-08-17T02:38:33.731Z,91
2022-08-17T02:39:36.209Z,91
2022-08-17T02:40:39.308Z,91
2022-08-17T02:41:42.381Z,91
2022-08-17T02:42:45.657Z,91
2022-08-17T02:43:48.695Z,91
2022-08-17T02:44:51.870Z,91
2022-08-17T02:45:54.210Z,91
2022-08-17T02:46:57.648Z,91
2022-08-17T02:48:00.857Z,91
2022-08-17T02:49:03.788Z,91
2022-08-17T02:50:06.211Z,91
2022-08-17T02:51:08.833Z,91
2022-08-17T02:52:11.468Z,92
2022-08-17T02:53:14.340Z,92
2022-08-17T02:54:43.222Z,92
2022-08-17T02:55:45.792Z,92
2022-08-17T02:56:48.478Z,92
2022-08-17T02:57:51.319Z,92
2022-08-17T02:58:53.820Z,92
2022-08-17T02:59:56.444Z,92
2022-08-17T03:01:00.302Z,92
2022-08-17T03:02:03.592Z,92
2022-08-17T03:03:06.211Z,92
2022-08-17T03:04:08.840Z,91
2022-08-17T03:05:11.360Z,91
2022-08-17T03:06:13.926Z,92
2022-08-17T03:07:16.638Z,92
2022-08-17T03:08:19.001Z,92
2022-08-17T03:09:21.426Z,92
2022-08-17T03:10:23.786Z,92
2022-08-17T03:11:26.723Z,92
2022-08-17T03:12:29.574Z,92
2022-08-17T03:13:32.693Z,91
2022-08-17T03:14:42.261Z,91
2022-08-17T03:15:45.402Z,91
2022-08-17T03:16:48.872Z,91
2022-08-17T03:17:51.505Z,92
2022-08-17T03:18:54.704Z,92
2022-08-17T03:19:57.390Z,92
2022-08-17T03:21:00.032Z,92
2022-08-17T03:22:40.738Z,91
2022-08-17T03:23:55.503Z,91
2022-08-17T03:24:58.283Z,91
2022-08-17T03:26:03.091Z,91
2022-08-17T03:27:18.466Z,91
2022-08-17T03:28:21.682Z,91
2022-08-17T03:29:24.386Z,91
2022-08-17T03:30:27.300Z,91
2022-08-17T03:31:30.214Z,91
2022-08-17T03:32:32.618Z,91
2022-08-17T03:33:36.002Z,91
2022-08-17T03:34:38.946Z,91
2022-08-17T03:35:41.682Z,90
2022-08-17T03:36:44.534Z,90
2022-08-17T03:38:00.994Z,90
2022-08-17T03:39:03.775Z,90
2022-08-17T03:40:07.422Z,90
2022-08-17T03:41:09.996Z,90
2022-08-17T03:42:33.397Z,90
2022-08-17T03:43:35.916Z,90
2022-08-17T03:44:38.948Z,90
2022-08-17T03:45:43.650Z,90
2022-08-17T03:46:46.565Z,90
2022-08-17T03:47:49.293Z,90
2022-08-17T03:48:52.688Z,90
2022-08-17T03:49:55.572Z,90
2022-08-17T03:50:58.191Z,90
2022-08-17T03:52:01.231Z,90
2022-08-17T03:53:04.091Z,90
2022-08-17T03:54:09.439Z,90
2022-08-17T03:55:12.176Z,90
2022-08-17T03:56:15.369Z,90
2022-08-17T03:57:18.286Z,90
2022-08-17T03:58:21.941Z,90
2022-08-17T03:59:28.122Z,90
2022-08-17T04:00:31.304Z,90
2022-08-17T04:01:34.323Z,90
2022-08-17T04:02:37.612Z,90
2022-08-17T04:03:40.814Z,90
2022-08-17T04:04:44.098Z,90
2022-08-17T04:05:47.891Z,90
2022-08-17T04:06:50.773Z,90
2022-08-17T04:07:53.727Z,90
2022-08-17T04:08:56.944Z,90
2022-08-17T04:09:59.909Z,90
2022-08-17T04:11:02.899Z,90
2022-08-17T04:12:06.112Z,90
2022-08-17T04:13:08.379Z,90
2022-08-17T04:14:11.260Z,90
2022-08-17T04:15:13.926Z,90
2022-08-17T04:16:16.554Z,90
2022-08-17T04:17:21.061Z,90
2022-08-17T04:18:24.254Z,90
2022-08-17T04:19:26.887Z,91
2022-08-17T04:20:29.798Z,91
2022-08-17T04:21:33.262Z,90
2022-08-17T04:22:35.600Z,90
2022-08-17T04:23:38.931Z,90
2022-08-17T04:24:41.556Z,90
2022-08-17T04:25:44.243Z,90
2022-08-17T04:26:55.553Z,90
2022-08-17T04:27:58.196Z,91
2022-08-17T04:29:01.094Z,91
2022-08-17T04:30:03.675Z,91
2022-08-17T04:31:08.806Z,91
2022-08-17T04:32:11.735Z,91
2022-08-17T04:33:15.804Z,91
2022-08-17T04:34:20.812Z,91
2022-08-17T04:35:23.510Z,91
2022-08-17T04:36:25.795Z,91
2022-08-17T04:37:28.427Z,91
2022-08-17T04:38:31.271Z,91
2022-08-17T04:39:35.440Z,91
2022-08-17T04:40:38.420Z,91
2022-08-17T04:41:44.787Z,91
2022-08-17T04:43:00.956Z,91
2022-08-17T04:44:04.534Z,91
2022-08-17T04:45:06.888Z,91
2022-08-17T04:46:08.966Z,91
2022-08-17T04:47:14.106Z,91
2022-08-17T04:48:16.950Z,91
2022-08-17T04:49:19.014Z,91
2022-08-17T04:50:21.916Z,91
2022-08-17T04:51:24.560Z,91
2022-08-17T04:52:44.579Z,91
2022-08-17T04:53:56.143Z,91
2022-08-17T04:54:58.441Z,91
2022-08-17T04:56:01.064Z,91
2022-08-17T04:57:03.352Z,91
2022-08-17T04:58:05.417Z,91
2022-08-17T04:59:07.717Z,91
2022-08-17T05:00:10.563Z,91
2022-08-17T05:01:13.515Z,91
2022-08-17T05:02:16.569Z,91
2022-08-17T05:03:19.480Z,90
2022-08-17T05:04:36.270Z,90
2022-08-17T05:05:39.050Z,90
2022-08-17T05:06:42.442Z,90
2022-08-17T05:07:45.623Z,90
2022-08-17T05:08:48.603Z,90
2022-08-17T05:09:51.572Z,90
2022-08-17T05:10:53.442Z,90
2022-08-17T05:11:57.376Z,90
2022-08-17T05:13:00.507Z,90
2022-08-17T05:14:02.860Z,90
2022-08-17T05:15:06.051Z,90
2022-08-17T05:16:08.897Z,90
2022-08-17T05:17:12.970Z,90
2022-08-17T05:18:15.902Z,90
2022-08-17T05:19:19.370Z,90
2022-08-17T05:20:21.949Z,89
2022-08-17T05:21:24.651Z,89
2022-08-17T05:22:26.944Z,89
2022-08-17T05:23:46.127Z,89
2022-08-17T05:25:03.517Z,89
2022-08-17T05:26:28.774Z,88
2022-08-17T05:27:41.016Z,88
2022-08-17T05:28:48.622Z,88
2022-08-17T05:29:53.623Z,88
2022-08-17T05:30:55.985Z,88
2022-08-17T05:31:58.685Z,88
2022-08-17T05:33:01.331Z,88
2022-08-17T05:34:04.036Z,88
2022-08-17T05:35:06.887Z,88
2022-08-17T05:36:44.437Z,88
2022-08-17T05:37:47.384Z,88
2022-08-17T05:38:49.749Z,88
2022-08-17T05:39:52.929Z,88
2022-08-17T05:40:56.381Z,89
2022-08-17T05:41:59.003Z,89
2022-08-17T05:43:01.591Z,89
2022-08-17T05:44:06.767Z,89
2022-08-17T05:45:09.805Z,89
2022-08-17T05:46:12.719Z,88
2022-08-17T05:47:15.127Z,88
2022-08-17T05:48:17.967Z,87
2022-08-17T05:49:21.417Z,86
2022-08-17T05:50:30.793Z,86
2022-08-17T05:51:33.696Z,85
2022-08-17T05:52:36.341Z,85
2022-08-17T05:53:43.886Z,85
2022-08-17T05:54:47.076Z,85
2022-08-17T05:55:49.981Z,85
2022-08-17T05:56:52.490Z,86
2022-08-17T05:58:00.498Z,86
2022-08-17T05:59:04.832Z,87
2022-08-17T06:00:10.650Z,88
2022-08-17T06:01:16.027Z,89
2022-08-17T06:02:19.511Z,88
2022-08-17T06:03:22.161Z,89
2022-08-17T06:04:24.801Z,89
2022-08-17T06:05:27.664Z,89
2022-08-17T06:06:32.558Z,88
2022-08-17T06:07:35.255Z,87
2022-08-17T06:08:38.182Z,87
2022-08-17T06:09:40.485Z,86
2022-08-17T06:10:43.055Z,86
2022-08-17T06:11:45.886Z,86
2022-08-17T06:12:49.369Z,86
2022-08-17T06:13:52.863Z,85
2022-08-17T06:14:57.843Z,85
2022-08-17T06:16:00.814Z,84
2022-08-17T06:17:03.734Z,84
2022-08-17T06:18:06.308Z,84
2022-08-17T06:19:08.398Z,84
2022-08-17T06:20:11.319Z,85
2022-08-17T06:21:14.291Z,85
2022-08-17T06:22:16.864Z,85
2022-08-17T06:23:19.781Z,84
2022-08-17T06:24:22.142Z,84
2022-08-17T06:25:25.053Z,83
2022-08-17T06:26:43.948Z,83
2022-08-17T06:27:46.795Z,83
2022-08-17T06:28:56.166Z,83
2022-08-17T06:29:58.797Z,83
2022-08-17T06:31:02.129Z,83
2022-08-17T06:32:04.749Z,83
2022-08-17T06:33:07.656Z,83
2022-08-17T06:34:10.337Z,83
2022-08-17T06:35:13.178Z,82
2022-08-17T06:36:18.447Z,82
2022-08-17T06:37:21.641Z,82
2022-08-17T06:38:39.987Z,81
2022-08-17T06:39:43.471Z,81
2022-08-17T06:40:46.249Z,81
2022-08-17T06:41:49.100Z,80
2022-08-17T06:43:09.002Z,80
2022-08-17T06:44:52.228Z,80
2022-08-17T06:45:55.640Z,79
2022-08-17T06:46:58.548Z,79
2022-08-17T06:48:00.566Z,78
2022-08-17T06:49:03.535Z,77
2022-08-17T06:50:06.470Z,77
2022-08-17T06:51:09.385Z,77
2022-08-17T06:52:48.005Z,77
2022-08-17T06:53:50.647Z,76
2022-08-17T06:54:53.608Z,76
2022-08-17T06:55:56.802Z,76
2022-08-17T06:56:59.417Z,76
2022-08-17T06:58:17.307Z,77
2022-08-17T06:59:20.971Z,77
2022-08-17T07:00:23.817Z,76
2022-08-17T07:01:27.209Z,76
2022-08-17T07:02:53.767Z,77
2022-08-17T07:03:56.867Z,76
2022-08-17T07:04:59.289Z,77
2022-08-17T07:06:02.407Z,77
2022-08-17T07:07:05.890Z,76
2022-08-17T07:08:08.809Z,76
2022-08-17T07:09:11.596Z,76
2022-08-17T07:10:13.998Z,77
2022-08-17T07:11:17.160Z,77
2022-08-17T07:12:19.838Z,78
2022-08-17T07:13:22.425Z,78
2022-08-17T07:14:25.300Z,79
2022-08-17T07:15:27.689Z,80
2022-08-17T07:16:30.597Z,80
2022-08-17T07:17:49.301Z,80
2022-08-17T07:18:52.706Z,80
2022-08-17T07:19:57.811Z,79
2022-08-17T07:21:00.500Z,79
2022-08-17T07:22:03.348Z,79
2022-08-17T07:23:06.267Z,78
2022-08-17T07:24:09.202Z,78
2022-08-17T07:25:33.367Z,78
2022-08-17T07:26:35.797Z,78
2022-08-17T07:27:38.641Z,78
2022-08-17T07:28:41.306Z,78
2022-08-17T07:29:44.268Z,78
2022-08-17T07:30:48.741Z,78
2022-08-17T07:31:51.148Z,78
2022-08-17T07:32:54.073Z,78
2022-08-17T07:33:57.542Z,78
2022-08-17T07:35:00.734Z,78
2022-08-17T07:36:03.384Z,78
2022-08-17T07:37:06.614Z,78
2022-08-17T07:38:27.938Z,78
2022-08-17T07:39:30.581Z,78
2022-08-17T07:40:33.212Z,78
2022-08-17T07:42:00.026Z,78
2022-08-17T07:43:05.712Z,78
2022-08-17T07:44:08.562Z,78
2022-08-17T07:45:11.494Z,78
2022-08-17T07:46:14.340Z,78
2022-08-17T07:47:16.982Z,78
2022-08-17T07:48:20.199Z,78
2022-08-17T07:49:23.110Z,78
2022-08-17T07:50:27.402Z,78
2022-08-17T07:51:30.422Z,78
2022-08-17T07:52:53.117Z,78
2022-08-17T07:54:15.413Z,77
2022-08-17T07:55:18.871Z,77
2022-08-17T07:56:21.764Z,76
2022-08-17T07:57:30.906Z,76
2022-08-17T07:58:32.973Z,76
2022-08-17T07:59:36.582Z,76
2022-08-17T08:00:39.524Z,76
2022-08-17T08:01:45.843Z,76
2022-08-17T08:02:49.161Z,75
2022-08-17T08:03:54.032Z,75
2022-08-17T08:05:03.230Z,75
2022-08-17T08:06:12.878Z,75
2022-08-17T08:07:15.783Z,74
2022-08-17T08:08:18.978Z,74
2022-08-17T08:09:21.953Z,73
2022-08-17T08:10:24.522Z,74
2022-08-17T08:11:26.885Z,74
2022-08-17T08:12:35.291Z,74
2022-08-17T08:13:38.259Z,73
2022-08-17T08:14:41.112Z,73
2022-08-17T08:15:55.228Z,72
2022-08-17T08:16:57.521Z,72
2022-08-17T08:17:59.855Z,71
2022-08-17T08:19:02.492Z,71
2022-08-17T08:20:55.007Z,71
2022-08-17T08:21:57.681Z,71
2022-08-17T08:22:59.800Z,70
2022-08-17T08:24:02.421Z,70
2022-08-17T08:25:05.763Z,70
2022-08-17T08:26:16.514Z,70
2022-08-17T08:27:22.339Z,71
2022-08-17T08:28:24.773Z,70
2022-08-17T08:29:27.408Z,69
2022-08-17T08:30:34.534Z,69
2022-08-17T08:31:43.286Z,69
2022-08-17T08:32:47.162Z,68
2022-08-17T08:33:52.177Z,68
2022-08-17T08:35:04.660Z,68
2022-08-17T08:36:07.270Z,68
2022-08-17T08:37:42.109Z,68
2022-08-17T08:38:46.594Z,68
2022-08-17T08:39:50.359Z,69
2022-08-17T08:40:53.949Z,68
2022-08-17T08:41:56.685Z,68
2022-08-17T08:42:59.870Z,68
2022-08-17T08:44:02.789Z,67
2022-08-17T08:45:06.678Z,67
2022-08-17T08:46:09.858Z,66
2022-08-17T08:47:12.211Z,65
2022-08-17T08:49:05.007Z,65
2022-08-17T08:50:39.809Z,64
2022-08-17T08:51:43.425Z,64
2022-08-17T08:52:47.260Z,64
2022-08-17T08:53:50.249Z,64
2022-08-17T08:54:52.825Z,64
2022-08-17T08:55:55.737Z,64
2022-08-17T08:57:34.801Z,63
2022-08-17T08:58:43.693Z,60
2022-08-17T08:59:59.800Z,61
2022-08-17T09:01:02.598Z,59
2022-08-17T09:02:05.375Z,59
2022-08-17T09:03:08.017Z,58
2022-08-17T09:04:26.640Z,59
2022-08-17T09:05:29.150Z,58
2022-08-17T09:06:40.606Z,57
2022-08-17T09:07:44.154Z,58
2022-08-17T09:08:47.053Z,58
2022-08-17T09:09:49.128Z,58
2022-08-17T09:10:51.978Z,58
2022-08-17T09:12:05.313Z,58
2022-08-17T09:13:12.592Z,58
2022-08-17T09:14:30.244Z,58
2022-08-17T09:15:50.428Z,58
2022-08-17T09:16:53.640Z,58
2022-08-17T09:19:05.701Z,57
2022-08-17T09:20:14.597Z,56
2022-08-17T09:21:34.806Z,55
2022-08-17T09:22:38.377Z,55
2022-08-17T09:23:41.441Z,55
2022-08-17T09:24:43.613Z,55
2022-08-17T09:25:46.525Z,53
2022-08-17T09:26:49.152Z,53
2022-08-17T09:27:53.480Z,53
2022-08-17T09:28:56.689Z,53
2022-08-17T09:29:59.665Z,53
2022-08-17T09:31:02.674Z,53
2022-08-17T09:32:05.163Z,52
2022-08-17T09:33:07.794Z,52
2022-08-17T09:34:10.863Z,52
2022-08-17T09:35:13.559Z,51
2022-08-17T09:36:16.700Z,52
2022-08-17T09:37:19.620Z,51
2022-08-17T09:38:22.553Z,50
2022-08-17T09:39:25.611Z,50
2022-08-17T09:40:28.705Z,50
2022-08-17T09:41:31.333Z,49
2022-08-17T09:42:33.964Z,50
2022-08-17T09:43:36.811Z,49
2022-08-17T09:44:40.213Z,49
2022-08-17T09:45:42.500Z,48
2022-08-17T09:46:46.243Z,48
2022-08-17T09:47:48.890Z,47
2022-08-17T09:51:52.111Z,45
2022-08-17T09:52:55.167Z,45
2022-08-17T09:54:41.031Z,45
2022-08-17T09:55:46.935Z,45
2022-08-17T09:57:32.428Z,45
2022-08-17T09:58:35.432Z,46
2022-08-17T09:59:42.573Z,46
2022-08-17T10:00:47.449Z,46
2022-08-17T10:01:50.210Z,46
2022-08-17T10:02:53.262Z,45
2022-08-17T10:03:56.453Z,44
2022-08-17T10:04:58.811Z,44
2022-08-17T10:06:01.506Z,43
2022-08-17T10:07:08.815Z,43
2022-08-17T10:08:12.316Z,43
2022-08-17T10:09:14.552Z,43
2022-08-17T10:10:18.217Z,42
2022-08-17T10:11:43.640Z,43
2022-08-17T10:12:54.177Z,43
2022-08-17T10:14:00.503Z,43
2022-08-17T10:15:10.957Z,43
2022-08-17T10:16:14.142Z,43
2022-08-17T10:17:16.811Z,42
2022-08-17T10:18:19.317Z,42
2022-08-17T10:19:22.504Z,42
2022-08-17T10:20:25.414Z,42
2022-08-17T10:21:27.994Z,42
2022-08-17T10:22:39.052Z,43
2022-08-17T10:23:43.712Z,42
2022-08-17T10:25:53.889Z,42
2022-08-17T10:26:59.213Z,42
2022-08-17T10:28:02.416Z,41
2022-08-17T10:29:05.232Z,42
2022-08-17T10:30:08.158Z,41
2022-08-17T10:31:44.783Z,41
2022-08-17T10:32:47.939Z,41
2022-08-17T10:33:50.954Z,40
2022-08-17T10:34:54.137Z,41
2022-08-17T10:35:58.572Z,41
2022-08-17T10:37:00.847Z,41
2022-08-17T10:38:04.167Z,41
2022-08-17T10:39:07.465Z,42
2022-08-17T10:40:10.960Z,42
2022-08-17T10:41:14.614Z,42
2022-08-17T10:42:34.396Z,42
2022-08-17T10:43:37.418Z,42
2022-08-17T10:44:42.503Z,42
2022-08-17T10:45:48.602Z,43
2022-08-17T10:48:06.791Z,42
2022-08-17T10:49:11.697Z,43
2022-08-17T10:50:15.385Z,43
2022-08-17T10:51:18.491Z,43
2022-08-17T10:52:21.549Z,42
2022-08-17T10:53:27.532Z,42
2022-08-17T10:54:30.708Z,42
2022-08-17T10:55:33.503Z,42
2022-08-17T10:56:37.203Z,42
2022-08-17T10:57:40.552Z,40
2022-08-17T10:58:43.014Z,41
2022-08-17T10:59:46.160Z,42
2022-08-17T11:00:49.715Z,41
2022-08-17T11:01:55.091Z,41
2022-08-17T11:02:58.717Z,40
2022-08-17T11:04:05.108Z,40
2022-08-17T11:05:08.548Z,40
2022-08-17T11:06:12.005Z,40
2022-08-17T11:07:15.080Z,40
2022-08-17T11:08:20.395Z,40
2022-08-17T11:09:26.612Z,40
2022-08-17T11:10:29.498Z,39
2022-08-17T11:11:32.524Z,38
2022-08-17T11:12:36.515Z,39
2022-08-17T11:13:39.047Z,39
2022-08-17T11:14:42.725Z,38
2022-08-17T11:15:45.565Z,38
2022-08-17T11:16:48.822Z,38
2022-08-17T11:17:51.114Z,38
2022-08-17T11:18:54.304Z,38
2022-08-17T11:19:57.236Z,37
2022-08-17T11:21:00.092Z,37
2022-08-17T11:22:03.295Z,37
2022-08-17T11:23:05.942Z,37
2022-08-17T11:24:08.849Z,36
2022-08-17T11:25:11.477Z,36
2022-08-17T11:26:14.128Z,36
2022-08-17T11:27:16.644Z,35
2022-08-17T11:28:19.337Z,34
2022-08-17T11:29:26.908Z,34
2022-08-17T11:30:34.032Z,34
2022-08-17T11:31:41.503Z,34
2022-08-17T11:32:56.226Z,34
2022-08-17T11:33:59.791Z,35
2022-08-17T11:35:02.115Z,35
2022-08-17T11:36:05.102Z,34
2022-08-17T11:37:07.109Z,34
2022-08-17T11:38:17.298Z,35
2022-08-17T11:39:20.474Z,35
2022-08-17T11:40:23.668Z,35
2022-08-17T11:41:26.564Z,35
2022-08-17T11:42:29.785Z,35
2022-08-17T11:43:32.632Z,35
2022-08-17T11:44:35.050Z,35
2022-08-17T11:45:37.618Z,35
2022-08-17T11:46:52.417Z,35
2022-08-17T11:48:30.109Z,35
2022-08-17T11:49:35.074Z,34
2022-08-17T11:50:38.213Z,34
2022-08-17T11:51:40.291Z,34
2022-08-17T11:52:47.527Z,33
2022-08-17T11:53:50.163Z,34
2022-08-17T11:54:53.020Z,34
2022-08-17T11:55:56.149Z,34
2022-08-17T11:56:59.006Z,34
2022-08-17T11:58:01.896Z,34
2022-08-17T11:59:04.301Z,34
2022-08-17T12:00:07.288Z,34
2022-08-17T12:01:16.881Z,34
2022-08-17T12:02:20.147Z,33
2022-08-17T12:03:23.448Z,33
2022-08-17T12:04:27.342Z,32
2022-08-17T12:05:30.398Z,32
2022-08-17T12:06:33.246Z,32
2022-08-17T12:07:35.991Z,32
2022-08-17T12:08:42.397Z,32
2022-08-17T12:09:44.746Z,32
2022-08-17T12:10:48.263Z,32
2022-08-17T12:12:15.315Z,32
2022-08-17T12:13:19.067Z,32
2022-08-17T12:15:12.281Z,32
2022-08-17T12:16:15.853Z,32
2022-08-17T12:17:44.040Z,32
2022-08-17T12:18:46.876Z,32
2022-08-17T12:19:49.518Z,31
2022-08-17T12:20:57.917Z,32
2022-08-17T12:22:00.234Z,31
2022-08-17T12:23:03.370Z,31
2022-08-17T12:24:06.019Z,31
2022-08-17T12:25:08.506Z,31
2022-08-17T12:26:11.418Z,32
2022-08-17T12:27:14.445Z,32
2022-08-17T12:28:22.991Z,32
2022-08-17T12:29:40.296Z,33
2022-08-17T12:30:43.435Z,33
2022-08-17T12:31:46.085Z,33
2022-08-17T12:32:48.496Z,33
2022-08-17T12:33:51.086Z,33
2022-08-17T12:34:53.724Z,33
2022-08-17T12:36:00.834Z,33
2022-08-17T12:37:04.823Z,33
2022-08-17T12:38:34.927Z,33
2022-08-17T12:39:39.875Z,33
2022-08-17T12:40:42.133Z,34
2022-08-17T12:41:45.600Z,34
2022-08-17T12:42:48.794Z,32
2022-08-17T12:43:51.376Z,32
2022-08-17T12:44:53.799Z,32
2022-08-17T12:45:56.431Z,32
2022-08-17T12:46:59.620Z,32
2022-08-17T12:48:03.089Z,32
2022-08-17T12:49:05.607Z,32
2022-08-17T12:50:30.853Z,32
2022-08-17T12:51:33.942Z,31
2022-08-17T12:52:36.909Z,30
2022-08-17T12:53:39.528Z,30
2022-08-17T12:54:42.445Z,31
2022-08-17T12:55:45.088Z,30
2022-08-17T12:56:49.060Z,30
2022-08-17T12:57:52.802Z,31
2022-08-17T12:58:56.676Z,31
2022-08-17T12:59:59.448Z,31
2022-08-17T13:01:02.013Z,31
2022-08-17T13:02:05.185Z,31
2022-08-17T13:03:08.251Z,31
2022-08-17T13:04:15.333Z,31
2022-08-17T13:05:18.032Z,31
2022-08-17T13:06:20.048Z,30
2022-08-17T13:07:22.412Z,30
2022-08-17T13:08:25.388Z,30
2022-08-17T13:09:42.075Z,30
2022-08-17T13:10:45.269Z,30
2022-08-17T13:11:54.631Z,30
2022-08-17T13:12:57.620Z,29
2022-08-17T13:14:00.190Z,29
2022-08-17T13:15:03.056Z,30
2022-08-17T13:16:05.758Z,29
2022-08-17T13:17:14.817Z,29
2022-08-17T13:18:17.744Z,29
2022-08-17T13:19:42.309Z,29
2022-08-17T13:20:45.180Z,29
2022-08-17T13:21:48.091Z,29
2022-08-17T13:22:51.123Z,29
2022-08-17T13:23:54.724Z,29
2022-08-17T13:24:57.856Z,29
2022-08-17T13:26:00.433Z,29
2022-08-17T13:27:09.530Z,29
2022-08-17T13:28:11.901Z,29
2022-08-17T13:29:14.532Z,29
2022-08-17T13:30:17.448Z,29
2022-08-17T13:31:20.141Z,29
2022-08-17T13:32:27.597Z,29
2022-08-17T13:33:46.065Z,29
2022-08-17T13:35:40.559Z,29
2022-08-17T13:36:52.940Z,29
2022-08-17T13:37:56.632Z,30
2022-08-17T13:38:59.878Z,30
2022-08-17T13:40:02.810Z,30
2022-08-17T13:41:06.802Z,30
2022-08-17T13:42:22.456Z,30
2022-08-17T13:43:26.252Z,30
2022-08-17T13:44:28.616Z,30
2022-08-17T13:45:42.379Z,30
2022-08-17T13:46:59.202Z,30
2022-08-17T13:48:01.840Z,30
2022-08-17T13:49:04.476Z,31
2022-08-17T13:50:06.833Z,31
2022-08-17T13:51:09.752Z,31
2022-08-17T13:52:25.708Z,32
2022-08-17T13:53:33.893Z,32
2022-08-17T13:54:37.676Z,32
2022-08-17T13:55:40.324Z,32
2022-08-17T13:56:43.519Z,33
2022-08-17T13:57:46.964Z,33
2022-08-17T13:58:49.706Z,33
2022-08-17T13:59:56.680Z,33
2022-08-17T14:00:59.665Z,33
2022-08-17T14:02:02.475Z,33
2022-08-17T14:03:05.555Z,32
2022-08-17T14:04:08.247Z,32
2022-08-17T14:05:11.564Z,32
2022-08-17T14:06:54.839Z,32
2022-08-17T14:07:57.680Z,32
2022-08-17T14:08:59.573Z,32
2022-08-17T14:10:02.956Z,31
2022-08-17T14:11:05.623Z,30
2022-08-17T14:12:08.622Z,30
2022-08-17T14:13:11.321Z,30
2022-08-17T14:14:14.247Z,29
2022-08-17T14:15:16.875Z,29
2022-08-17T14:16:19.489Z,29
2022-08-17T14:17:22.419Z,29
2022-08-17T14:18:58.204Z,29
2022-08-17T14:20:00.239Z,29
2022-08-17T14:21:03.087Z,29
2022-08-17T14:22:06.364Z,29
2022-08-17T14:23:08.995Z,29
2022-08-17T14:24:11.412Z,30
2022-08-17T14:25:14.807Z,30
2022-08-17T14:26:17.508Z,30
2022-08-17T14:27:20.638Z,31
2022-08-17T14:28:23.472Z,32
2022-08-17T14:29:30.016Z,32
2022-08-17T14:30:33.459Z,33
2022-08-17T14:31:38.824Z,33
2022-08-17T14:32:41.677Z,33
2022-08-17T14:33:44.313Z,34
2022-08-17T14:34:47.769Z,34
2022-08-17T14:35:50.965Z,35
2022-08-17T14:36:53.886Z,35
2022-08-17T14:37:56.810Z,35
2022-08-17T14:38:59.104Z,34
2022-08-17T14:40:02.804Z,34
2022-08-17T14:41:05.815Z,34
2022-08-17T14:42:08.228Z,34
2022-08-17T14:43:10.255Z,34
2022-08-17T14:44:12.694Z,34
2022-08-17T14:45:34.316Z,34
2022-08-17T14:46:37.449Z,34
2022-08-17T14:47:40.295Z,35
2022-08-17T14:48:42.866Z,35
2022-08-17T14:49:49.195Z,35
2022-08-17T14:50:52.106Z,35
2022-08-17T14:51:55.021Z,35
2022-08-17T14:53:02.276Z,35
2022-08-17T14:54:05.056Z,35
2022-08-17T14:55:07.466Z,35
2022-08-17T14:56:09.768Z,35
2022-08-17T14:57:35.371Z,35
2022-08-17T14:58:40.157Z,36
2022-08-17T14:59:42.791Z,35
2022-08-17T15:00:46.212Z,34
2022-08-17T15:01:49.905Z,35
2022-08-17T15:02:52.648Z,35
2022-08-17T15:03:55.551Z,34
2022-08-17T15:04:58.565Z,34
2022-08-17T15:06:01.837Z,34
2022-08-17T15:07:04.183Z,33
2022-08-17T15:08:06.606Z,33
2022-08-17T15:09:10.353Z,34
2022-08-17T15:10:13.862Z,34
2022-08-17T15:11:17.321Z,34
2022-08-17T15:12:19.827Z,34
2022-08-17T15:13:21.913Z,34
2022-08-17T15:14:24.287Z,34
2022-08-17T15:15:26.985Z,34
2022-08-17T15:16:30.463Z,34
2022-08-17T15:17:57.540Z,34
2022-08-17T15:19:01.565Z,34
2022-08-17T15:20:04.747Z,34
2022-08-17T15:21:07.741Z,34
2022-08-17T15:22:10.929Z,34
2022-08-17T15:23:13.835Z,34
2022-08-17T15:24:16.756Z,35
2022-08-17T15:25:19.241Z,35
2022-08-17T15:26:27.558Z,35
2022-08-17T15:27:34.164Z,35
2022-08-17T15:28:37.353Z,35
2022-08-17T15:29:39.863Z,35
2022-08-17T15:30:43.063Z,35
2022-08-17T15:31:45.715Z,35
2022-08-17T15:32:56.528Z,35
2022-08-17T15:48:23.241Z,37
2022-08-17T15:49:28.158Z,37
2022-08-17T15:50:30.704Z,37
2022-08-17T15:51:33.045Z,38
2022-08-17T15:52:35.882Z,38
2022-08-17T15:53:39.042Z,39
2022-08-17T15:54:47.572Z,39
2022-08-17T15:55:53.435Z,39
2022-08-17T15:56:56.347Z,39
2022-08-17T15:57:59.221Z,39
2022-08-17T15:59:01.836Z,39